| Date | Time | Temp. (oF) | Dew Point (oF) | Rel. Hum. (%) | Press. (in.) | Wind Dir. | Wind Speed (mph) | Hourly Rainfall (in.) |
|
|---|---|---|---|---|---|---|---|---|---|
| 1 | 02/29 | 00:00 | 39 | 26 | 60 | 30.25 | W | 4 | 0.00 |
| 2 | 02/28 | 23:00 | 40 | 25 | 55 | 30.23 | NNW | 13 | 0.00 |
| 3 | 02/28 | 22:00 | 43 | 24 | 48 | 30.22 | NNW | 7 | 0.00 |
| 4 | 02/28 | 21:00 | 45 | 23 | 43 | 30.18 | WNW | 11 | 0.00 |
| 5 | 02/28 | 20:00 | 47 | 22 | 38 | 30.15 | WNW | 11 | 0.00 |
| 6 | 02/28 | 19:00 | 48 | 25 | 41 | 30.13 | WSW | 10 | 0.00 |
| 7 | 02/28 | 18:00 | 50 | 25 | 39 | 30.10 | WNW | 7 | 0.00 |
| 8 | 02/28 | 17:00 | 51 | 26 | 38 | 30.07 | WNW | 20 | 0.00 |
| 9 | 02/28 | 16:00 | 52 | 28 | 40 | 30.05 | W | 18 | 0.00 |
| 10 | 02/28 | 15:00 | 52 | 27 | 39 | 30.05 | WNW | 19 | 0.00 |
| 11 | 02/28 | 14:00 | 52 | 28 | 41 | 30.06 | WNW | 7 | 0.00 |
| 12 | 02/28 | 13:00 | 52 | 28 | 41 | 30.08 | WNW | 10 | 0.00 |
| 13 | 02/28 | 12:00 | 51 | 28 | 42 | 30.09 | WSW | 12 | 0.00 |
| 14 | 02/28 | 11:00 | 50 | 32 | 51 | 30.11 | NW | 6 | 0.00 |
| 15 | 02/28 | 10:00 | 47 | 31 | 55 | 30.12 | WNW | 18 | 0.00 |
| 16 | 02/28 | 09:00 | 46 | 34 | 63 | 30.11 | WSW | 17 | 0.00 |
| 17 | 02/28 | 08:00 | 44 | 35 | 72 | 30.11 | SW | 4 | 0.00 |
| 18 | 02/28 | 07:00 | 42 | 36 | 81 | 30.09 | WNW | 5 | 0.00 |
| 19 | 02/28 | 06:00 | 44 | 40 | 87 | 30.08 | W | 11 | 0.00 |
| 20 | 02/28 | 05:00 | 45 | 42 | 91 | 30.06 | WSW | 2 | 0.00 |
| 21 | 02/28 | 04:00 | 45 | 43 | 95 | 30.04 | WNW | 3 | 0.00 |
| 22 | 02/28 | 03:00 | 45 | 43 | 93 | 30.02 | NNW | 5 | 0.02 |
| 23 | 02/28 | 02:00 | 49 | 48 | 99 | 30.03 | WNW | 5 | 0.06 |
| 24 | 02/28 | 01:00 | 49 | 49 | 100 | 30.02 | W | 4 | 0.07 |